Aérodrome :
LOGIN :

S'inscrire | Disclaimer

   EN    FR    IT 

 










Légende :    VFR   VFR Marginal   IFR   IFR Intensif   IFR Très Intensif
Visi : 
Plafond : 
>= 8 km
>= 3000ft
5 à 8 km
1000 à 3000 ft
1500m à 5 km
500 à 1000 ft
800 à 1500m
200 à 500 ft
< 800m
< 200 ft
Symboles :   Orages  Brouillard  Fortes neiges  Fortes précipitations  Vent > 20 kt
SIGMETs :   Divers  Orages  Givrage  Turbulence  Onde Orograph.  Cendres Volcan.







- Altitude de l'aérodrome : 375 ft
- Code IATA : MST


EHBK - Maastricht Aachen

DERNIER METAR :
  • 211055Z AUTO 07013G23KT 030V120 9999 NCD 23/11 Q1014 NOSIG

METARs EXPIRÉS :
  • 211025Z AUTO 08015KT 050V110 9999 NSC 23/10 Q1014 NOSIG
  • 210955Z AUTO 07012KT 010V100 9999 NSC 21/11 Q1014 NOSIG
  • 210925Z AUTO 07012KT 040V130 9999 NSC 20/09 Q1015 NOSIG
  • 210855Z AUTO 07011KT 040V100 9999 NSC 19/09 Q1015 NOSIG
  • 210825Z AUTO 07009KT 030V110 9999 NSC 18/09 Q1015 NOSIG

TAF TAF EHBK
Valide du 21 à 06h jusqu'au 22 à 12h UTC


210505Z 2106/2212 VRB03KT CAVOK
BECMG 2107/2110 09012KT
PROB30
TEMPO 2115/2121 11012G25KT 4000 TSRA SHRA SCT050CB
BECMG 2120/2123 VRB03KT
PROB30
TEMPO 2121/2202 16010KT 7000 RA SHRA SCT060CB
Pas de NOTAMs connus pour ce terrain.



MET'MAP, la Météo Aéronautique d'un coup d'oeil ! - Copyright ORBIFLY Décembre 2007 - Disclaimer

ORBIFLY MET'MAP TEAM :

Programmation & Développement : Alexandra Zaïnal
Conception & Développement : Baudouin d'Aumeries
Co-Programmation & Développement : Marc-Olivier Méhu
Soutien technique & logistique : Manuel Goepfert

Contact : metmap@orbifly.com




SOURCES & CREDITS :

   NOAA